Terminal Aerodrome Forecast
Issued by NWS Duluth, MN

Home | Current Version | Previous Version | Text Only | Print | Product List | Glossary On
Versions: 1 2 3 4 5 6 7 8 9 10 11 12 13 14 15 16 17 18 19 20 21 22 23 24 25 26 27 28 29 30 31 32
000
FTUS43 KDLH 281029 AAF
TAFDLH
TAF AMD
KDLH 281029Z 2810/2906 21005KT P6SM OVC014
      TEMPO 2810/2812 OVC021
     FM281400 21006KT P6SM BKN040
     FM281800 22010G17KT P6SM SCT030=

USA.gov is the U.S. government's official web portal to all federal, state and local government web resources and services.